sensor_id;sensor_type;location;lat;lon;timestamp;pressure;altitude;pressure_sealevel;temperature;humidity
20350;BME280;10332;50.208;18.988;2022-10-26T00:01:16;98408.47;;;12.62;97.62
20350;BME280;10332;50.208;18.988;2022-10-26T00:03:45;98397.41;;;12.59;97.76
20350;BME280;10332;50.208;18.988;2022-10-26T00:06:20;98405.25;;;12.59;97.32
20350;BME280;10332;50.208;18.988;2022-10-26T00:08:48;98408.19;;;12.54;97.55
20350;BME280;10332;50.208;18.988;2022-10-26T00:11:17;98404.00;;;12.52;97.71
20350;BME280;10332;50.208;18.988;2022-10-26T00:13:46;98406.94;;;12.47;97.85
20350;BME280;10332;50.208;18.988;2022-10-26T00:16:24;98405.03;;;12.49;97.57
20350;BME280;10332;50.208;18.988;2022-10-26T00:18:53;98400.75;;;12.48;97.91
20350;BME280;10332;50.208;18.988;2022-10-26T00:21:20;98402.75;;;12.44;97.75
20350;BME280;10332;50.208;18.988;2022-10-26T00:23:47;98409.66;;;12.45;97.79
20350;BME280;10332;50.208;18.988;2022-10-26T00:26:16;98408.13;;;12.43;98.34
20350;BME280;10332;50.208;18.988;2022-10-26T00:28:44;98408.53;;;12.37;98.59
20350;BME280;10332;50.208;18.988;2022-10-26T00:31:14;98405.19;;;12.35;98.52
20350;BME280;10332;50.208;18.988;2022-10-26T00:33:42;98408.22;;;12.41;98.37
20350;BME280;10332;50.208;18.988;2022-10-26T00:36:10;98401.63;;;12.36;98.32
20350;BME280;10332;50.208;18.988;2022-10-26T00:38:40;98403.06;;;12.40;97.98
20350;BME280;10332;50.208;18.988;2022-10-26T00:41:18;98392.81;;;12.37;98.03
20350;BME280;10332;50.208;18.988;2022-10-26T00:43:46;98401.41;;;12.39;98.02
20350;BME280;10332;50.208;18.988;2022-10-26T00:46:34;98398.91;;;12.37;98.00
20350;BME280;10332;50.208;18.988;2022-10-26T00:49:12;98400.91;;;12.34;97.73
20350;BME280;10332;50.208;18.988;2022-10-26T00:51:47;98400.78;;;12.35;97.84
20350;BME280;10332;50.208;18.988;2022-10-26T00:54:19;98406.34;;;12.31;98.35
20350;BME280;10332;50.208;18.988;2022-10-26T00:56:53;98404.78;;;12.28;98.16
20350;BME280;10332;50.208;18.988;2022-10-26T00:59:22;98402.06;;;12.30;98.28
20350;BME280;10332;50.208;18.988;2022-10-26T01:01:51;98395.38;;;12.26;98.64
20350;BME280;10332;50.208;18.988;2022-10-26T01:04:19;98396.31;;;12.25;98.78
20350;BME280;10332;50.208;18.988;2022-10-26T01:06:47;98395.38;;;12.26;98.63
20350;BME280;10332;50.208;18.988;2022-10-26T01:09:18;98398.00;;;12.26;98.40
20350;BME280;10332;50.208;18.988;2022-10-26T01:11:46;98394.66;;;12.24;98.74
20350;BME280;10332;50.208;18.988;2022-10-26T01:14:17;98409.59;;;12.21;98.64
20350;BME280;10332;50.208;18.988;2022-10-26T01:20:18;98405.75;;;12.02;99.64
20350;BME280;10332;50.208;18.988;2022-10-26T01:23:00;98411.72;;;11.91;100.00
20350;BME280;10332;50.208;18.988;2022-10-26T01:31:52;98403.03;;;11.90;100.00
20350;BME280;10332;50.208;18.988;2022-10-26T01:34:46;98393.31;;;11.92;100.00
20350;BME280;10332;50.208;18.988;2022-10-26T01:37:24;98393.13;;;11.96;100.00
20350;BME280;10332;50.208;18.988;2022-10-26T01:43:19;98391.94;;;12.00;100.00
20350;BME280;10332;50.208;18.988;2022-10-26T01:45:47;98399.38;;;12.06;100.00
20350;BME280;10332;50.208;18.988;2022-10-26T01:48:19;98400.00;;;12.09;100.00
20350;BME280;10332;50.208;18.988;2022-10-26T01:50:52;98394.03;;;12.07;100.00
20350;BME280;10332;50.208;18.988;2022-10-26T01:53:21;98393.69;;;12.12;100.00
20350;BME280;10332;50.208;18.988;2022-10-26T01:55:53;98395.19;;;12.16;100.00
20350;BME280;10332;50.208;18.988;2022-10-26T01:58:48;98400.41;;;12.16;100.00
20350;BME280;10332;50.208;18.988;2022-10-26T02:10:20;98398.00;;;12.26;100.00
20350;BME280;10332;50.208;18.988;2022-10-26T02:13:24;98399.53;;;12.28;100.00
20350;BME280;10332;50.208;18.988;2022-10-26T02:16:36;98406.25;;;12.32;99.81
20350;BME280;10332;50.208;18.988;2022-10-26T02:21:59;98408.72;;;12.46;99.41
20350;BME280;10332;50.208;18.988;2022-10-26T02:24:30;98413.53;;;12.53;99.04
20350;BME280;10332;50.208;18.988;2022-10-26T02:27:00;98405.44;;;12.56;98.87
20350;BME280;10332;50.208;18.988;2022-10-26T02:29:32;98406.09;;;12.59;98.43
20350;BME280;10332;50.208;18.988;2022-10-26T02:32:02;98407.88;;;12.59;98.30
20350;BME280;10332;50.208;18.988;2022-10-26T02:34:33;98404.19;;;12.61;98.11
20350;BME280;10332;50.208;18.988;2022-10-26T02:37:05;98406.69;;;12.63;98.15
20350;BME280;10332;50.208;18.988;2022-10-26T02:39:35;98405.75;;;12.64;97.99
20350;BME280;10332;50.208;18.988;2022-10-26T02:42:06;98406.56;;;12.64;97.91
20350;BME280;10332;50.208;18.988;2022-10-26T02:45:02;98409.91;;;12.66;98.18
20350;BME280;10332;50.208;18.988;2022-10-26T02:47:32;98407.81;;;12.71;97.70
20350;BME280;10332;50.208;18.988;2022-10-26T02:50:00;98411.28;;;12.72;97.87
20350;BME280;10332;50.208;18.988;2022-10-26T02:53:00;98412.75;;;12.63;98.27
20350;BME280;10332;50.208;18.988;2022-10-26T02:55:41;98397.66;;;12.67;98.42
20350;BME280;10332;50.208;18.988;2022-10-26T02:58:21;98404.69;;;12.66;98.54
20350;BME280;10332;50.208;18.988;2022-10-26T03:00:50;98414.00;;;12.70;99.08
20350;BME280;10332;50.208;18.988;2022-10-26T03:03:19;98405.19;;;12.71;98.70
20350;BME280;10332;50.208;18.988;2022-10-26T03:05:48;98409.38;;;12.74;98.56
20350;BME280;10332;50.208;18.988;2022-10-26T03:08:16;98410.31;;;12.73;98.77
20350;BME280;10332;50.208;18.988;2022-10-26T03:10:44;98407.38;;;12.77;98.84
20350;BME280;10332;50.208;18.988;2022-10-26T03:13:13;98413.59;;;12.76;98.86
20350;BME280;10332;50.208;18.988;2022-10-26T03:15:40;98409.25;;;12.75;98.85
20350;BME280;10332;50.208;18.988;2022-10-26T03:18:08;98418.91;;;12.75;99.16
20350;BME280;10332;50.208;18.988;2022-10-26T03:20:35;98415.69;;;12.71;99.45
20350;BME280;10332;50.208;18.988;2022-10-26T03:23:03;98414.72;;;12.72;99.65
20350;BME280;10332;50.208;18.988;2022-10-26T03:25:30;98412.81;;;12.74;99.68
20350;BME280;10332;50.208;18.988;2022-10-26T03:28:02;98415.78;;;12.70;99.46
20350;BME280;10332;50.208;18.988;2022-10-26T03:30:30;98411.50;;;12.69;99.88
20350;BME280;10332;50.208;18.988;2022-10-26T03:32:58;98423.78;;;12.68;99.92
20350;BME280;10332;50.208;18.988;2022-10-26T03:35:25;98423.78;;;12.68;100.00
20350;BME280;10332;50.208;18.988;2022-10-26T03:37:52;98422.19;;;12.66;100.00
20350;BME280;10332;50.208;18.988;2022-10-26T03:40:20;98424.91;;;12.64;100.00
20350;BME280;10332;50.208;18.988;2022-10-26T03:42:48;98423.47;;;12.60;100.00
20350;BME280;10332;50.208;18.988;2022-10-26T03:45:15;98420.13;;;12.58;100.00
20350;BME280;10332;50.208;18.988;2022-10-26T03:47:47;98425.38;;;12.58;100.00
20350;BME280;10332;50.208;18.988;2022-10-26T03:50:19;98423.66;;;12.57;100.00
20350;BME280;10332;50.208;18.988;2022-10-26T03:52:48;98428.06;;;12.57;100.00
20350;BME280;10332;50.208;18.988;2022-10-26T03:55:16;98421.81;;;12.59;100.00
20350;BME280;10332;50.208;18.988;2022-10-26T03:57:44;98417.72;;;12.55;100.00
20350;BME280;10332;50.208;18.988;2022-10-26T04:00:15;98420.44;;;12.54;100.00
20350;BME280;10332;50.208;18.988;2022-10-26T04:02:45;98413.84;;;12.48;100.00
20350;BME280;10332;50.208;18.988;2022-10-26T04:05:19;98418.59;;;12.43;100.00
20350;BME280;10332;50.208;18.988;2022-10-26T04:07:54;98415.66;;;12.35;100.00
20350;BME280;10332;50.208;18.988;2022-10-26T04:10:24;98428.03;;;12.33;100.00
20350;BME280;10332;50.208;18.988;2022-10-26T04:12:53;98421.53;;;12.26;100.00
20350;BME280;10332;50.208;18.988;2022-10-26T04:15:21;98430.75;;;12.18;100.00
20350;BME280;10332;50.208;18.988;2022-10-26T04:18:00;98428.91;;;12.08;100.00
20350;BME280;10332;50.208;18.988;2022-10-26T04:20:30;98431.81;;;12.03;100.00
20350;BME280;10332;50.208;18.988;2022-10-26T04:23:01;98436.22;;;12.03;100.00
20350;BME280;10332;50.208;18.988;2022-10-26T04:25:30;98432.66;;;12.04;100.00
20350;BME280;10332;50.208;18.988;2022-10-26T04:28:02;98441.38;;;12.04;100.00
20350;BME280;10332;50.208;18.988;2022-10-26T04:30:31;98443.03;;;12.05;100.00
20350;BME280;10332;50.208;18.988;2022-10-26T04:32:59;98445.66;;;12.05;100.00
20350;BME280;10332;50.208;18.988;2022-10-26T04:35:27;98443.88;;;12.06;100.00
20350;BME280;10332;50.208;18.988;2022-10-26T04:38:03;98438.75;;;12.04;100.00
20350;BME280;10332;50.208;18.988;2022-10-26T04:40:33;98441.44;;;12.03;100.00
20350;BME280;10332;50.208;18.988;2022-10-26T04:43:01;98440.81;;;11.99;100.00
20350;BME280;10332;50.208;18.988;2022-10-26T04:45:28;98437.47;;;11.97;100.00
20350;BME280;10332;50.208;18.988;2022-10-26T04:48:05;98438.22;;;11.99;100.00
20350;BME280;10332;50.208;18.988;2022-10-26T04:50:33;98440.50;;;12.04;100.00
20350;BME280;10332;50.208;18.988;2022-10-26T04:53:01;98438.53;;;12.07;100.00
20350;BME280;10332;50.208;18.988;2022-10-26T04:55:28;98436.03;;;12.06;100.00
20350;BME280;10332;50.208;18.988;2022-10-26T04:57:56;98432.34;;;12.08;100.00
20350;BME280;10332;50.208;18.988;2022-10-26T05:00:27;98432.47;;;12.07;100.00
20350;BME280;10332;50.208;18.988;2022-10-26T05:03:01;98430.47;;;11.98;100.00
20350;BME280;10332;50.208;18.988;2022-10-26T05:05:32;98437.25;;;12.00;100.00
20350;BME280;10332;50.208;18.988;2022-10-26T05:07:59;98435.72;;;11.98;100.00
20350;BME280;10332;50.208;18.988;2022-10-26T05:10:27;98436.66;;;11.97;100.00
20350;BME280;10332;50.208;18.988;2022-10-26T05:12:57;98436.00;;;11.93;100.00
20350;BME280;10332;50.208;18.988;2022-10-26T05:15:26;98433.19;;;11.96;100.00
20350;BME280;10332;50.208;18.988;2022-10-26T05:18:01;98431.31;;;11.98;100.00
20350;BME280;10332;50.208;18.988;2022-10-26T05:20:34;98434.75;;;11.99;100.00
20350;BME280;10332;50.208;18.988;2022-10-26T05:23:10;98429.75;;;11.96;100.00
20350;BME280;10332;50.208;18.988;2022-10-26T05:25:38;98438.31;;;11.98;100.00
20350;BME280;10332;50.208;18.988;2022-10-26T05:28:09;98441.03;;;11.96;100.00
20350;BME280;10332;50.208;18.988;2022-10-26T05:30:43;98445.63;;;11.92;100.00
20350;BME280;10332;50.208;18.988;2022-10-26T05:33:13;98444.78;;;11.92;100.00
20350;BME280;10332;50.208;18.988;2022-10-26T05:35:40;98448.06;;;11.96;100.00
20350;BME280;10332;50.208;18.988;2022-10-26T05:38:12;98443.84;;;11.93;100.00
20350;BME280;10332;50.208;18.988;2022-10-26T05:40:51;98442.72;;;11.97;100.00
20350;BME280;10332;50.208;18.988;2022-10-26T05:43:21;98448.69;;;11.99;100.00
20350;BME280;10332;50.208;18.988;2022-10-26T05:45:50;98449.41;;;12.01;100.00
20350;BME280;10332;50.208;18.988;2022-10-26T05:48:18;98448.69;;;11.99;100.00
20350;BME280;10332;50.208;18.988;2022-10-26T05:50:45;98450.13;;;12.03;100.00
20350;BME280;10332;50.208;18.988;2022-10-26T05:53:12;98452.66;;;12.05;100.00
20350;BME280;10332;50.208;18.988;2022-10-26T05:55:40;98452.44;;;12.08;100.00
20350;BME280;10332;50.208;18.988;2022-10-26T05:58:11;98455.69;;;12.11;100.00
20350;BME280;10332;50.208;18.988;2022-10-26T06:03:43;98457.78;;;12.19;100.00
20350;BME280;10332;50.208;18.988;2022-10-26T06:06:15;98452.44;;;12.20;100.00
20350;BME280;10332;50.208;18.988;2022-10-26T06:08:43;98458.41;;;12.23;100.00
20350;BME280;10332;50.208;18.988;2022-10-26T06:11:10;98463.53;;;12.24;100.00
20350;BME280;10332;50.208;18.988;2022-10-26T06:13:38;98465.53;;;12.20;100.00
20350;BME280;10332;50.208;18.988;2022-10-26T06:25:35;98487.41;;;12.19;100.00
20350;BME280;10332;50.208;18.988;2022-10-26T06:31:13;98483.53;;;12.25;100.00
20350;BME280;10332;50.208;18.988;2022-10-26T06:33:41;98489.41;;;12.29;100.00
20350;BME280;10332;50.208;18.988;2022-10-26T06:36:23;98484.88;;;12.31;100.00
20350;BME280;10332;50.208;18.988;2022-10-26T06:39:06;98488.56;;;12.41;100.00
20350;BME280;10332;50.208;18.988;2022-10-26T06:41:36;98486.97;;;12.51;100.00
20350;BME280;10332;50.208;18.988;2022-10-26T06:44:04;98499.56;;;12.59;100.00
20350;BME280;10332;50.208;18.988;2022-10-26T06:49:37;98502.84;;;12.73;100.00
20350;BME280;10332;50.208;18.988;2022-10-26T06:54:52;98502.53;;;12.78;100.00
20350;BME280;10332;50.208;18.988;2022-10-26T06:57:24;98500.94;;;12.88;100.00
20350;BME280;10332;50.208;18.988;2022-10-26T07:00:19;98498.38;;;12.99;100.00
20350;BME280;10332;50.208;18.988;2022-10-26T07:02:48;98504.75;;;13.08;99.69
20350;BME280;10332;50.208;18.988;2022-10-26T07:05:17;98518.38;;;13.13;99.58
20350;BME280;10332;50.208;18.988;2022-10-26T07:07:46;98507.28;;;13.22;99.15
20350;BME280;10332;50.208;18.988;2022-10-26T07:10:15;98511.00;;;13.31;98.78
20350;BME280;10332;50.208;18.988;2022-10-26T07:12:42;98510.94;;;13.44;98.48
20350;BME280;10332;50.208;18.988;2022-10-26T07:15:10;98514.09;;;13.49;98.13
20350;BME280;10332;50.208;18.988;2022-10-26T07:17:46;98514.44;;;13.55;97.62
20350;BME280;10332;50.208;18.988;2022-10-26T07:20:17;98515.22;;;13.69;97.62
20350;BME280;10332;50.208;18.988;2022-10-26T07:22:51;98523.13;;;13.80;97.16
20350;BME280;10332;50.208;18.988;2022-10-26T07:25:19;98520.91;;;13.86;96.49
20350;BME280;10332;50.208;18.988;2022-10-26T07:27:47;98521.38;;;13.91;96.16
20350;BME280;10332;50.208;18.988;2022-10-26T07:30:14;98523.31;;;14.01;95.79
20350;BME280;10332;50.208;18.988;2022-10-26T07:32:43;98536.75;;;14.20;95.50
20350;BME280;10332;50.208;18.988;2022-10-26T07:35:10;98526.50;;;14.39;94.83
20350;BME280;10332;50.208;18.988;2022-10-26T07:37:37;98530.59;;;14.55;93.17
20350;BME280;10332;50.208;18.988;2022-10-26T07:40:06;98534.31;;;14.86;92.39
20350;BME280;10332;50.208;18.988;2022-10-26T07:42:55;98530.31;;;15.25;91.12
20350;BME280;10332;50.208;18.988;2022-10-26T07:45:25;98531.31;;;15.88;88.14
20350;BME280;10332;50.208;18.988;2022-10-26T07:47:52;98530.75;;;17.08;84.06
20350;BME280;10332;50.208;18.988;2022-10-26T07:50:20;98540.59;;;19.35;77.85
20350;BME280;10332;50.208;18.988;2022-10-26T07:52:47;98527.84;;;21.80;67.49
20350;BME280;10332;50.208;18.988;2022-10-26T07:55:15;98527.16;;;23.77;61.44
20350;BME280;10332;50.208;18.988;2022-10-26T07:57:43;98524.00;;;25.53;54.47
20350;BME280;10332;50.208;18.988;2022-10-26T08:00:11;98528.47;;;26.59;48.82
20350;BME280;10332;50.208;18.988;2022-10-26T08:02:38;98527.97;;;27.59;45.91
20350;BME280;10332;50.208;18.988;2022-10-26T08:05:06;98537.16;;;28.44;42.81
20350;BME280;10332;50.208;18.988;2022-10-26T08:07:41;98533.16;;;29.45;39.80
20350;BME280;10332;50.208;18.988;2022-10-26T08:10:11;98535.22;;;30.44;38.19
20350;BME280;10332;50.208;18.988;2022-10-26T08:12:40;98544.63;;;31.40;36.84
20350;BME280;10332;50.208;18.988;2022-10-26T08:15:08;98542.06;;;32.16;34.49
20350;BME280;10332;50.208;18.988;2022-10-26T08:17:35;98535.19;;;32.67;33.36
20350;BME280;10332;50.208;18.988;2022-10-26T08:20:03;98547.00;;;33.25;32.87
20350;BME280;10332;50.208;18.988;2022-10-26T08:22:31;98544.50;;;32.71;32.16
20350;BME280;10332;50.208;18.988;2022-10-26T08:24:58;98538.16;;;32.54;32.78
20350;BME280;10332;50.208;18.988;2022-10-26T08:27:25;98542.72;;;33.00;31.82
20350;BME280;10332;50.208;18.988;2022-10-26T08:29:53;98546.38;;;33.75;31.57
20350;BME280;10332;50.208;18.988;2022-10-26T08:32:20;98540.97;;;34.54;30.76
20350;BME280;10332;50.208;18.988;2022-10-26T08:34:47;98534.31;;;35.00;29.70
20350;BME280;10332;50.208;18.988;2022-10-26T08:37:14;98549.63;;;35.50;28.28
20350;BME280;10332;50.208;18.988;2022-10-26T08:39:42;98549.63;;;35.50;27.61
20350;BME280;10332;50.208;18.988;2022-10-26T08:42:17;98540.25;;;36.86;26.68
20350;BME280;10332;50.208;18.988;2022-10-26T08:44:47;98539.75;;;37.67;25.69
20350;BME280;10332;50.208;18.988;2022-10-26T08:47:26;98540.88;;;38.73;24.63
20350;BME280;10332;50.208;18.988;2022-10-26T08:55:31;98539.88;;;41.52;21.37
20350;BME280;10332;50.208;18.988;2022-10-26T08:58:05;98546.88;;;42.66;21.11
20350;BME280;10332;50.208;18.988;2022-10-26T09:00:37;98547.06;;;42.56;20.08
20350;BME280;10332;50.208;18.988;2022-10-26T09:03:13;98546.03;;;41.62;19.76
20350;BME280;10332;50.208;18.988;2022-10-26T09:09:42;98553.63;;;41.89;19.63
20350;BME280;10332;50.208;18.988;2022-10-26T09:13:32;98558.34;;;42.03;19.45
20350;BME280;10332;50.208;18.988;2022-10-26T09:16:12;98554.25;;;43.89;18.55
20350;BME280;10332;50.208;18.988;2022-10-26T09:24:53;98554.38;;;47.07;16.32
20350;BME280;10332;50.208;18.988;2022-10-26T09:27:33;98553.63;;;47.57;16.65
20350;BME280;10332;50.208;18.988;2022-10-26T09:30:19;98552.25;;;47.42;15.44
20350;BME280;10332;50.208;18.988;2022-10-26T09:32:49;98555.84;;;48.05;15.89
20350;BME280;10332;50.208;18.988;2022-10-26T09:35:24;98562.69;;;48.99;14.74
20350;BME280;10332;50.208;18.988;2022-10-26T09:37:58;98562.44;;;48.92;15.06
20350;BME280;10332;50.208;18.988;2022-10-26T09:43:13;98551.53;;;49.72;14.55
20350;BME280;10332;50.208;18.988;2022-10-26T09:45:50;98564.78;;;49.91;13.55
20350;BME280;10332;50.208;18.988;2022-10-26T09:48:48;98558.34;;;50.03;13.97
20350;BME280;10332;50.208;18.988;2022-10-26T09:51:17;98563.38;;;49.85;13.97
20350;BME280;10332;50.208;18.988;2022-10-26T09:53:47;98557.09;;;50.00;13.86
20350;BME280;10332;50.208;18.988;2022-10-26T09:56:16;98551.94;;;50.14;13.74
20350;BME280;10332;50.208;18.988;2022-10-26T09:58:51;98548.59;;;50.37;13.70
20350;BME280;10332;50.208;18.988;2022-10-26T10:01:30;98553.09;;;51.20;13.51
20350;BME280;10332;50.208;18.988;2022-10-26T10:06:40;98550.72;;;49.71;13.68
20350;BME280;10332;50.208;18.988;2022-10-26T10:09:21;98547.81;;;50.52;12.95
20350;BME280;10332;50.208;18.988;2022-10-26T10:12:01;98544.69;;;51.52;12.88
20350;BME280;10332;50.208;18.988;2022-10-26T10:14:39;98542.41;;;51.22;13.23
20350;BME280;10332;50.208;18.988;2022-10-26T10:17:23;98544.50;;;50.18;12.89
20350;BME280;10332;50.208;18.988;2022-10-26T10:19:51;98545.47;;;49.82;13.62
20350;BME280;10332;50.208;18.988;2022-10-26T10:22:24;98542.72;;;49.70;13.28
20350;BME280;10332;50.208;18.988;2022-10-26T10:25:00;98543.97;;;50.13;13.14
20350;BME280;10332;50.208;18.988;2022-10-26T10:27:29;98541.28;;;50.32;12.95
20350;BME280;10332;50.208;18.988;2022-10-26T10:30:22;98544.97;;;49.52;13.02
20350;BME280;10332;50.208;18.988;2022-10-26T10:33:13;98538.44;;;50.00;13.08
20350;BME280;10332;50.208;18.988;2022-10-26T10:35:50;98543.63;;;50.74;12.75
20350;BME280;10332;50.208;18.988;2022-10-26T10:38:20;98547.78;;;49.80;13.05
20350;BME280;10332;50.208;18.988;2022-10-26T10:40:52;98545.53;;;50.42;12.42
20350;BME280;10332;50.208;18.988;2022-10-26T10:43:20;98538.78;;;51.37;12.23
20350;BME280;10332;50.208;18.988;2022-10-26T10:45:52;98541.06;;;50.69;12.51
20350;BME280;10332;50.208;18.988;2022-10-26T10:48:28;98537.31;;;50.93;12.51
20350;BME280;10332;50.208;18.988;2022-10-26T10:51:05;98536.53;;;50.61;12.54
20350;BME280;10332;50.208;18.988;2022-10-26T10:53:54;98547.03;;;52.08;12.01
20350;BME280;10332;50.208;18.988;2022-10-26T10:56:36;98532.56;;;51.79;11.77
20350;BME280;10332;50.208;18.988;2022-10-26T11:08:29;98527.34;;;46.83;14.50
20350;BME280;10332;50.208;18.988;2022-10-26T11:11:31;98529.78;;;44.32;15.64
20350;BME280;10332;50.208;18.988;2022-10-26T11:16:49;98526.59;;;40.10;18.77
20350;BME280;10332;50.208;18.988;2022-10-26T11:19:29;98524.66;;;37.34;20.85
20350;BME280;10332;50.208;18.988;2022-10-26T11:21:58;98515.44;;;35.54;22.42
20350;BME280;10332;50.208;18.988;2022-10-26T11:24:42;98509.72;;;38.89;19.94
20350;BME280;10332;50.208;18.988;2022-10-26T11:27:24;98520.00;;;41.98;17.76
20350;BME280;10332;50.208;18.988;2022-10-26T11:30:19;98518.84;;;44.18;15.61
20350;BME280;10332;50.208;18.988;2022-10-26T11:32:59;98519.50;;;46.38;14.81
20350;BME280;10332;50.208;18.988;2022-10-26T11:35:45;98519.53;;;45.35;15.26
20350;BME280;10332;50.208;18.988;2022-10-26T11:41:47;98524.19;;;48.73;12.78
20350;BME280;10332;50.208;18.988;2022-10-26T11:44:44;98522.69;;;50.64;12.39
20350;BME280;10332;50.208;18.988;2022-10-26T11:47:29;98523.00;;;52.00;12.16
20350;BME280;10332;50.208;18.988;2022-10-26T11:50:27;98528.03;;;52.79;11.04
20350;BME280;10332;50.208;18.988;2022-10-26T11:53:20;98527.81;;;53.14;10.74
20350;BME280;10332;50.208;18.988;2022-10-26T11:55:52;98530.44;;;54.27;10.65
20350;BME280;10332;50.208;18.988;2022-10-26T11:58:25;98520.19;;;54.38;10.21
20350;BME280;10332;50.208;18.988;2022-10-26T12:01:00;98522.16;;;54.82;10.19
20350;BME280;10332;50.208;18.988;2022-10-26T12:03:37;98513.72;;;54.75;10.08
20350;BME280;10332;50.208;18.988;2022-10-26T12:06:18;98512.75;;;55.84;10.12
20350;BME280;10332;50.208;18.988;2022-10-26T12:09:16;98517.72;;;55.36;9.61
20350;BME280;10332;50.208;18.988;2022-10-26T12:11:56;98531.25;;;55.27;9.29
20350;BME280;10332;50.208;18.988;2022-10-26T12:23:03;98519.38;;;52.18;10.74
20350;BME280;10332;50.208;18.988;2022-10-26T12:25:32;98518.75;;;51.32;10.72
20350;BME280;10332;50.208;18.988;2022-10-26T12:27:59;98510.41;;;46.47;12.97
20350;BME280;10332;50.208;18.988;2022-10-26T12:30:33;98508.19;;;45.97;13.37
20350;BME280;10332;50.208;18.988;2022-10-26T12:33:28;98509.56;;;46.93;13.15
20350;BME280;10332;50.208;18.988;2022-10-26T12:35:57;98517.00;;;44.36;14.56
20350;BME280;10332;50.208;18.988;2022-10-26T12:43:40;98497.34;;;41.73;16.70
20350;BME280;10332;50.208;18.988;2022-10-26T12:48:49;98501.84;;;45.53;14.22
20350;BME280;10332;50.208;18.988;2022-10-26T12:54:34;98487.16;;;45.18;14.49
20350;BME280;10332;50.208;18.988;2022-10-26T12:57:33;98491.66;;;41.08;17.36
20350;BME280;10332;50.208;18.988;2022-10-26T13:00:10;98491.63;;;43.58;15.68
20350;BME280;10332;50.208;18.988;2022-10-26T13:06:24;98490.59;;;40.56;17.58
20350;BME280;10332;50.208;18.988;2022-10-26T13:08:56;98482.38;;;41.23;17.34
20350;BME280;10332;50.208;18.988;2022-10-26T13:11:43;98483.63;;;43.71;15.46
20350;BME280;10332;50.208;18.988;2022-10-26T13:14:39;98486.38;;;44.38;15.08
20350;BME280;10332;50.208;18.988;2022-10-26T13:17:28;98496.47;;;45.31;14.59
20350;BME280;10332;50.208;18.988;2022-10-26T13:20:01;98489.31;;;46.16;14.11
20350;BME280;10332;50.208;18.988;2022-10-26T13:22:30;98489.56;;;46.40;14.11
20350;BME280;10332;50.208;18.988;2022-10-26T13:25:04;98482.47;;;46.22;13.82
20350;BME280;10332;50.208;18.988;2022-10-26T13:32:38;98493.69;;;46.00;13.75
20350;BME280;10332;50.208;18.988;2022-10-26T13:35:12;98490.66;;;45.84;13.93
20350;BME280;10332;50.208;18.988;2022-10-26T13:37:47;98483.16;;;45.33;14.34
20350;BME280;10332;50.208;18.988;2022-10-26T13:40:20;98488.69;;;45.93;14.21
20350;BME280;10332;50.208;18.988;2022-10-26T13:42:56;98493.66;;;46.81;13.84
20350;BME280;10332;50.208;18.988;2022-10-26T13:45:57;98484.94;;;47.00;13.25
20350;BME280;10332;50.208;18.988;2022-10-26T13:48:40;98496.47;;;47.94;12.56
20350;BME280;10332;50.208;18.988;2022-10-26T13:51:22;98488.84;;;47.49;12.99
20350;BME280;10332;50.208;18.988;2022-10-26T13:54:00;98500.63;;;46.49;13.29
20350;BME280;10332;50.208;18.988;2022-10-26T13:56:47;98492.56;;;46.18;13.57
20350;BME280;10332;50.208;18.988;2022-10-26T13:59:22;98499.00;;;46.48;13.47
20350;BME280;10332;50.208;18.988;2022-10-26T14:02:24;98498.91;;;46.10;13.94
20350;BME280;10332;50.208;18.988;2022-10-26T14:04:59;98495.50;;;46.13;13.97
20350;BME280;10332;50.208;18.988;2022-10-26T14:07:48;98489.03;;;45.74;14.08
20350;BME280;10332;50.208;18.988;2022-10-26T14:10:47;98492.75;;;45.96;14.08
20350;BME280;10332;50.208;18.988;2022-10-26T14:13:23;98486.28;;;45.66;14.06
20350;BME280;10332;50.208;18.988;2022-10-26T14:15:57;98488.03;;;45.62;13.99
20350;BME280;10332;50.208;18.988;2022-10-26T14:18:28;98491.41;;;45.15;14.34
20350;BME280;10332;50.208;18.988;2022-10-26T14:21:04;98489.94;;;44.69;14.36
20350;BME280;10332;50.208;18.988;2022-10-26T14:23:45;98502.69;;;43.81;14.77
20350;BME280;10332;50.208;18.988;2022-10-26T14:26:26;98492.41;;;43.23;15.15
20350;BME280;10332;50.208;18.988;2022-10-26T14:28:59;98489.06;;;42.85;15.51
20350;BME280;10332;50.208;18.988;2022-10-26T14:31:30;98492.13;;;42.83;15.80
20350;BME280;10332;50.208;18.988;2022-10-26T14:34:00;98489.09;;;42.71;16.02
20350;BME280;10332;50.208;18.988;2022-10-26T14:39:40;98485.97;;;41.99;16.49
20350;BME280;10332;50.208;18.988;2022-10-26T14:42:35;98494.78;;;41.95;16.58
20350;BME280;10332;50.208;18.988;2022-10-26T14:48:32;98491.72;;;41.22;16.92
20350;BME280;10332;50.208;18.988;2022-10-26T14:51:09;98498.91;;;40.41;17.67
20350;BME280;10332;50.208;18.988;2022-10-26T14:53:39;98499.97;;;39.37;18.29
20350;BME280;10332;50.208;18.988;2022-10-26T14:56:46;98498.63;;;38.34;19.58
20350;BME280;10332;50.208;18.988;2022-10-26T14:59:30;98492.16;;;37.12;20.46
20350;BME280;10332;50.208;18.988;2022-10-26T15:04:40;98497.09;;;34.06;22.81
20350;BME280;10332;50.208;18.988;2022-10-26T15:09:47;98504.91;;;30.92;26.43
20350;BME280;10332;50.208;18.988;2022-10-26T15:15:18;98506.75;;;28.64;29.86
20350;BME280;10332;50.208;18.988;2022-10-26T15:17:57;98503.88;;;27.79;31.15
20350;BME280;10332;50.208;18.988;2022-10-26T15:20:28;98509.50;;;26.95;32.66
20350;BME280;10332;50.208;18.988;2022-10-26T15:23:01;98512.19;;;26.32;33.87
20350;BME280;10332;50.208;18.988;2022-10-26T15:25:34;98514.94;;;25.90;33.72
20350;BME280;10332;50.208;18.988;2022-10-26T15:28:36;98504.88;;;25.34;35.08
20350;BME280;10332;50.208;18.988;2022-10-26T15:36:26;98519.59;;;24.27;36.54